Time;durP1;ratioP1;P1;durP2;ratioP2;P2;SDS_P1;SDS_P2;PMS_P1;PMS_P2;Temp;Humidity;BMP_temperature;BMP_pressure;BME280_temperature;BME280_humidity;BME280_pressure;Samples;Min_cycle;Max_cycle;Signal;HPM_P1;HPM_P2
2022/04/15 00:01:36;;;;;;;28.63;20.43;;;;;;;12.43;94.30;100974.23;5156460;57;1143214;-74
2022/04/15 00:06:41;;;;;;;16.70;12.10;;;;;;;12.48;94.88;100986.67;5072904;58;1143245;-71
2022/04/15 00:11:47;;;;;;;24.60;16.53;;;;;;;12.39;97.39;100988.22;4987616;59;1143165;-75
2022/04/15 00:16:53;;;;;;;25.10;16.30;;;;;;;12.33;96.23;100980.27;4972985;59;1143235;-72
2022/04/15 00:21:59;;;;;;;24.83;16.17;;;;;;;12.28;96.55;100977.59;5143230;57;1143050;-77
2022/04/15 00:27:05;;;;;;;24.10;14.73;;;;;;;12.20;97.10;100979.53;5142725;57;1143249;-77
2022/04/15 00:32:11;;;;;;;25.40;15.27;;;;;;;12.13;98.09;100973.48;5142619;57;1143273;-73
2022/04/15 00:37:17;;;;;;;23.53;15.67;;;;;;;12.11;98.08;100974.92;5180325;56;1143283;-77
2022/04/15 00:42:23;;;;;;;24.03;14.27;;;;;;;12.08;98.48;100970.33;5163823;57;1143105;-76
2022/04/15 00:47:56;;;;;;;18.13;11.83;;;;;;;12.08;98.53;100971.17;5242667;56;1143183;-73
2022/04/15 00:53:11;;;;;;;26.63;15.37;;;;;;;12.11;98.39;100971.42;4997271;59;1143200;-74
2022/04/15 00:58:20;;;;;;;24.60;14.80;;;;;;;12.11;98.26;100972.75;5037793;58;1143374;-80
2022/04/15 01:03:26;;;;;;;29.23;15.67;;;;;;;12.03;99.33;100964.08;5078275;58;1143160;-77
2022/04/15 01:08:33;;;;;;;26.67;15.87;;;;;;;12.01;99.42;100951.41;5078253;58;1143325;-76
2022/04/15 01:13:40;;;;;;;23.92;15.93;;;;;;;12.00;99.81;100949.72;5078169;58;1143174;-76
2022/04/15 01:18:46;;;;;;;29.07;17.23;;;;;;;12.01;100.00;100953.22;5068131;58;1143154;-76
2022/04/15 01:23:52;;;;;;;27.15;16.15;;;;;;;11.98;100.00;100957.78;5067383;57;1145451;-74
2022/04/15 01:28:58;;;;;;;39.30;21.20;;;;;;;12.00;100.00;100966.11;5131506;57;1145303;-71
2022/04/15 01:34:04;;;;;;;31.50;19.33;;;;;;;11.99;100.00;100963.94;5089095;57;1145300;-75
2022/04/15 01:39:10;;;;;;;27.23;15.70;;;;;;;11.96;100.00;100954.88;4995519;58;1143335;-77
2022/04/15 01:44:17;;;;;;;22.93;14.63;;;;;;;11.95;100.00;100954.52;4995246;59;1143181;-75
2022/04/15 01:49:23;;;;;;;25.57;14.43;;;;;;;11.86;100.00;100949.93;4995330;59;1143214;-75
2022/04/15 01:54:31;;;;;;;26.33;16.40;;;;;;;11.84;100.00;100948.72;5004672;58;1143203;-77
2022/04/15 01:59:37;;;;;;;26.07;16.00;;;;;;;11.85;100.00;100949.56;5076051;58;1143194;-74
2022/04/15 02:04:43;;;;;;;23.70;15.83;;;;;;;11.84;100.00;100949.20;5010329;58;1143167;-76
2022/04/15 02:09:49;;;;;;;32.93;17.13;;;;;;;11.86;100.00;100948.61;5021057;58;1143252;-74
2022/04/15 02:14:54;;;;;;;30.53;17.13;;;;;;;11.85;100.00;100941.13;5067652;58;1143136;-76
2022/04/15 02:20:00;;;;;;;30.73;18.47;;;;;;;11.87;100.00;100939.22;5078658;58;1143181;-75
2022/04/15 02:25:07;;;;;;;24.87;15.63;;;;;;;11.89;100.00;100937.30;5079738;58;1143420;-75
2022/04/15 02:30:14;;;;;;;23.67;15.13;;;;;;;11.81;100.00;100933.05;5079565;58;1143415;-79
2022/04/15 02:35:19;;;;;;;32.77;19.00;;;;;;;11.72;100.00;100934.20;5079608;58;1143333;-71
2022/04/15 02:40:25;;;;;;;30.27;14.93;;;;;;;11.69;100.00;100937.08;5079821;58;1143095;-73
2022/04/15 02:45:32;;;;;;;18.00;13.10;;;;;;;11.62;100.00;100932.23;5079527;58;1143666;-74
2022/04/15 02:50:39;;;;;;;20.27;13.43;;;;;;;11.54;100.00;100925.83;5079200;58;1143183;-73
2022/04/15 02:55:45;;;;;;;17.87;13.10;;;;;;;11.49;100.00;100923.52;5079632;58;1143187;-74
2022/04/15 03:00:51;;;;;;;20.90;13.90;;;;;;;11.52;100.00;100918.48;5080121;57;1143220;-72
2022/04/15 03:05:57;;;;;;;19.57;12.70;;;;;;;11.52;100.00;100915.34;5077598;58;1141230;-77
2022/04/15 03:11:03;;;;;;;21.50;14.20;;;;;;;11.53;100.00;100918.36;5075255;58;1263072;-73
2022/04/15 03:16:09;;;;;;;20.63;13.77;;;;;;;11.58;100.00;100921.52;5077614;57;1145247;-78
2022/04/15 03:21:14;;;;;;;18.77;13.63;;;;;;;11.61;100.00;100918.61;5162736;57;1145185;-78
2022/04/15 03:26:21;;;;;;;20.47;13.87;;;;;;;11.60;100.00;100924.91;5162482;57;1145182;-72
2022/04/15 03:31:29;;;;;;;24.33;13.83;;;;;;;11.63;100.00;100922.00;5162295;57;1145444;-76
2022/04/15 03:36:34;;;;;;;17.13;13.50;;;;;;;11.68;100.00;100922.14;5162465;56;1145210;-76
2022/04/15 03:41:40;;;;;;;24.63;13.27;;;;;;;11.70;100.00;100920.22;5162361;56;1145187;-75
2022/04/15 03:46:46;;;;;;;18.80;12.57;;;;;;;11.68;100.00;100917.69;5162419;56;1145239;-73
2022/04/15 03:51:52;;;;;;;19.30;11.80;;;;;;;11.66;100.00;100921.41;5162325;56;1145241;-73
2022/04/15 03:56:57;;;;;;;17.37;11.13;;;;;;;11.58;100.00;100916.22;5170523;56;1145377;-77
2022/04/15 04:02:05;;;;;;;13.27;9.37;;;;;;;11.48;100.00;100894.02;5203567;56;1145431;-73
2022/04/15 04:07:11;;;;;;;14.53;9.60;;;;;;;11.48;100.00;100894.02;5174979;56;1143241;-76
2022/04/15 04:12:17;;;;;;;17.52;10.75;;;;;;;11.62;100.00;100901.77;5203905;56;1143088;-74
2022/04/15 04:17:22;;;;;;;11.10;8.80;;;;;;;11.64;100.00;100897.20;5167900;56;1145509;-77
2022/04/15 04:22:30;;;;;;;40.10;20.83;;;;;;;11.66;100.00;100895.75;5139022;56;1143432;-71
2022/04/15 04:27:41;;;;;;;73.03;32.17;;;;;;;11.72;100.00;100897.11;5129493;57;1145216;-74
2022/04/15 04:32:53;;;;;;;10.03;7.40;;;;;;;11.73;100.00;100902.77;5129433;56;1145248;-73
2022/04/15 04:37:55;;;;;;;8.13;7.33;;;;;;;11.63;100.00;100908.75;5135099;56;1143548;-74
2022/04/15 04:43:01;;;;;;;7.63;6.83;;;;;;;11.51;100.00;100908.84;5140008;56;1141308;-74
2022/04/15 04:48:08;;;;;;;10.87;8.87;;;;;;;11.40;100.00;100914.95;5120470;57;1141072;-76
2022/04/15 04:53:13;;;;;;;12.77;9.97;;;;;;;11.33;100.00;100917.67;5145516;56;1143236;-73
2022/04/15 04:58:19;;;;;;;13.73;10.63;;;;;;;11.25;100.00;100917.41;5161682;56;1143426;-78
2022/04/15 05:03:25;;;;;;;13.43;10.40;;;;;;;11.22;100.00;100918.48;5085319;57;1145250;-73
2022/04/15 05:08:31;;;;;;;15.70;11.57;;;;;;;11.23;100.00;100910.91;5079518;57;1145347;-78
2022/04/15 05:13:37;;;;;;;11.80;9.23;;;;;;;11.25;100.00;100908.98;5151660;56;1145261;-75
2022/04/15 05:18:42;;;;;;;13.07;9.53;;;;;;;11.26;100.00;100923.08;5105404;56;1143202;-73
2022/04/15 05:23:48;;;;;;;11.80;8.90;;;;;;;11.21;100.00;100928.70;5142609;56;1143270;-77
2022/04/15 05:28:54;;;;;;;15.70;10.53;;;;;;;11.21;100.00;100937.97;5172942;56;1143118;-75
2022/04/15 05:34:00;;;;;;;11.30;9.27;;;;;;;11.21;100.00;100939.77;5193446;56;1145287;-77
2022/04/15 05:39:06;;;;;;;13.43;8.93;;;;;;;11.26;100.00;100941.13;5192508;56;1143410;-75
2022/04/15 05:44:14;;;;;;;12.47;9.07;;;;;;;11.27;100.00;100942.83;5227360;56;1143093;-74
2022/04/15 05:49:20;;;;;;;14.20;10.03;;;;;;;11.28;100.00;100952.46;5227897;56;1143433;-76
2022/04/15 05:54:26;;;;;;;13.73;9.53;;;;;;;11.33;100.00;100954.75;5228250;56;1145319;-75
2022/04/15 05:59:31;;;;;;;18.30;12.53;;;;;;;11.36;100.00;100957.17;5164148;56;1143099;-77
2022/04/15 06:04:37;;;;;;;99.53;67.27;;;;;;;11.40;100.00;100959.97;5162298;56;1145269;-78
2022/04/15 06:09:43;;;;;;;96.37;56.30;;;;;;;11.49;100.00;100963.73;5228443;56;1145262;-73
2022/04/15 06:14:53;;;;;;;40.10;25.70;;;;;;;11.59;100.00;100967.41;5228520;56;1145271;-74
2022/04/15 06:19:58;;;;;;;43.43;36.03;;;;;;;11.64;100.00;100967.88;5215153;56;1145359;-74
2022/04/15 06:25:04;;;;;;;22.83;16.20;;;;;;;11.68;100.00;100969.83;5163753;56;1143249;-76
2022/04/15 06:30:10;;;;;;;60.73;40.77;;;;;;;11.71;100.00;100979.73;5163793;56;1143132;-75
2022/04/15 06:35:16;;;;;;;22.00;15.13;;;;;;;11.71;100.00;100987.67;5163770;56;1143160;-72
2022/04/15 06:40:22;;;;;;;21.13;15.90;;;;;;;11.69;100.00;100990.91;5163618;56;1143204;-77
2022/04/15 06:45:28;;;;;;;21.67;13.53;;;;;;;11.72;100.00;100989.37;5163640;56;1143122;-75
2022/04/15 06:50:33;;;;;;;16.90;11.97;;;;;;;11.77;100.00;100992.53;5163620;56;1143365;-78
2022/04/15 06:55:40;;;;;;;18.97;12.40;;;;;;;11.78;100.00;100993.37;5163665;56;1143187;-78
2022/04/15 07:00:48;;;;;;;16.77;12.27;;;;;;;11.82;100.00;100987.73;5080087;56;1143174;-77
2022/04/15 07:05:54;;;;;;;16.77;12.37;;;;;;;11.92;100.00;100987.40;5120966;56;1143372;-75
2022/04/15 07:11:00;;;;;;;14.97;11.07;;;;;;;11.91;100.00;100983.56;5163537;56;1143196;-73
2022/04/15 07:16:06;;;;;;;19.27;12.83;;;;;;;11.90;100.00;100985.38;5163498;56;1143274;-73
2022/04/15 07:21:12;;;;;;;14.40;10.47;;;;;;;11.91;100.00;100984.89;5163383;56;1143222;-77
2022/04/15 07:26:17;;;;;;;15.43;10.37;;;;;;;12.04;100.00;100992.75;5163495;56;1143161;-76
2022/04/15 07:31:24;;;;;;;18.37;12.87;;;;;;;12.06;100.00;100992.16;5163669;56;1143414;-75
2022/04/15 07:41:42;;;;;;;22.77;16.80;;;;;;;11.90;100.00;100997.78;5153399;56;1143216;-76
2022/04/15 07:46:49;;;;;;;26.97;17.40;;;;;;;11.88;100.00;100995.24;5121158;56;1143227;-76
2022/04/15 07:51:54;;;;;;;24.47;16.70;;;;;;;11.90;100.00;100990.67;4998566;57;1141101;-73
2022/04/15 07:57:01;;;;;;;25.50;17.10;;;;;;;11.89;100.00;100992.95;5047101;58;21156;-76
2022/04/15 08:02:07;;;;;;;29.77;19.73;;;;;;;11.83;100.00;100999.19;4995413;58;1141119;-74
2022/04/15 08:07:13;;;;;;;34.27;20.67;;;;;;;11.69;100.00;100995.38;5079592;58;1145147;-75
2022/04/15 08:12:18;;;;;;;25.83;18.53;;;;;;;11.59;100.00;101001.84;5079721;58;1145204;-79
2022/04/15 08:17:24;;;;;;;24.00;17.33;;;;;;;11.57;100.00;101005.93;5079625;58;1145460;-77
2022/04/15 08:22:34;;;;;;;21.03;16.80;;;;;;;11.58;100.00;101008.09;5079429;58;1145213;-74
2022/04/15 08:27:38;;;;;;;16.43;13.37;;;;;;;11.57;100.00;101015.67;5094714;57;1145470;-76
2022/04/15 08:32:46;;;;;;;15.37;10.93;;;;;;;11.50;100.00;101017.92;5163569;57;1145257;-73
2022/04/15 08:37:52;;;;;;;24.60;12.80;;;;;;;11.45;100.00;101022.73;5080672;57;1145214;-69
2022/04/15 08:42:58;;;;;;;13.90;9.77;;;;;;;11.39;100.00;101028.94;5011358;57;1145256;-75
2022/04/15 08:48:06;;;;;;;11.43;7.83;;;;;;;11.29;100.00;101043.34;5156078;56;1143187;-74
2022/04/15 08:53:12;;;;;;;13.50;8.93;;;;;;;11.32;100.00;101041.77;5155466;57;1143148;-76
2022/04/15 08:58:18;;;;;;;13.47;8.90;;;;;;;11.20;100.00;101054.57;5180177;56;1143184;-74
2022/04/15 09:03:23;;;;;;;15.63;7.97;;;;;;;11.06;100.00;101062.66;5101260;57;1143228;-75
2022/04/15 09:08:29;;;;;;;7.77;6.03;;;;;;;10.90;100.00;101065.06;5115885;57;1143130;-75
2022/04/15 09:13:37;;;;;;;8.73;4.80;;;;;;;10.78;100.00;101073.02;5108245;57;1141094;-73
2022/04/15 09:18:42;;;;;;;8.37;6.30;;;;;;;10.61;100.00;101075.50;5122107;57;1141522;-75
2022/04/15 09:23:51;;;;;;;8.17;6.03;;;;;;;10.52;100.00;101080.11;5071950;58;1141107;-76
2022/04/15 09:28:58;;;;;;;8.63;6.23;;;;;;;10.45;100.00;101082.78;5072162;58;1141192;-77
2022/04/15 09:34:07;;;;;;;10.63;7.83;;;;;;;10.41;100.00;101091.87;5071692;58;1141635;-77
2022/04/15 09:39:17;;;;;;;10.70;5.93;;;;;;;10.39;100.00;101091.97;5183711;56;1143118;-76
2022/04/15 09:44:32;;;;;;;9.70;6.67;;;;;;;10.32;100.00;101096.00;5218657;56;1143412;-74
2022/04/15 09:49:35;;;;;;;13.40;7.27;;;;;;;10.27;100.00;101099.89;5226425;56;1140487;-73
2022/04/15 09:54:44;;;;;;;12.30;7.93;;;;;;;10.27;100.00;101097.24;5221450;56;1143235;-74
2022/04/15 09:59:53;;;;;;;14.23;8.77;;;;;;;10.29;100.00;101100.16;5217938;56;1143203;-78
2022/04/15 10:04:59;;;;;;;17.00;8.77;;;;;;;10.35;100.00;101106.38;5158224;56;1143152;-73
2022/04/15 10:10:05;;;;;;;9.63;6.25;;;;;;;10.41;100.00;101102.45;5214795;56;1143182;-78
2022/04/15 10:15:12;;;;;;;11.33;7.57;;;;;;;10.46;100.00;101106.96;5163258;56;1141080;-74
2022/04/15 10:20:19;;;;;;;13.67;6.90;;;;;;;10.46;100.00;101104.31;5201305;56;1143266;-74
2022/04/15 10:25:24;;;;;;;10.50;6.42;;;;;;;10.43;100.00;101109.80;5228376;56;1143179;-74
2022/04/15 10:30:30;;;;;;;11.80;6.80;;;;;;;10.45;100.00;101116.69;5249974;56;1143377;-73
2022/04/15 10:35:37;;;;;;;7.73;6.17;;;;;;;10.40;100.00;101116.62;5250807;56;1143167;-77
2022/04/15 10:40:46;;;;;;;8.37;5.20;;;;;;;10.37;100.00;101124.78;5250859;56;1141084;-74
2022/04/15 10:46:12;;;;;;;10.33;6.60;;;;;;;10.34;100.00;101132.91;5250325;56;1141175;-75
2022/04/15 10:51:27;;;;;;;13.53;6.05;;;;;;;10.33;100.00;101133.86;5244123;56;1141028;-75
2022/04/15 10:56:38;;;;;;;12.93;6.37;;;;;;;10.23;100.00;101130.48;5244890;56;1141014;-77
2022/04/15 11:02:05;;;;;;;11.95;7.28;;;;;;;10.26;100.00;101133.41;5235670;56;1141080;-76
2022/04/15 11:07:27;;;;;;;8.27;5.57;;;;;;;10.34;100.00;101135.55;5233018;56;1141238;-77
2022/04/15 11:12:47;;;;;;;12.03;8.13;;;;;;;10.41;100.00;101142.11;5219081;56;1136899;-72
2022/04/15 11:17:52;;;;;;;15.10;6.33;;;;;;;10.39;100.00;101143.53;5248706;56;1147949;-75
2022/04/15 11:22:57;;;;;;;14.47;6.90;;;;;;;10.46;100.00;101139.54;5247597;56;1143078;-75
2022/04/15 11:28:05;;;;;;;16.10;9.77;;;;;;;10.51;100.00;101140.09;5182076;56;1143088;-73
2022/04/15 11:33:11;;;;;;;11.43;6.77;;;;;;;10.50;100.00;101151.62;5216049;56;1143204;-73
2022/04/15 11:38:17;;;;;;;14.23;9.90;;;;;;;10.45;100.00;101152.39;5215986;56;1143298;-76
2022/04/15 11:43:26;;;;;;;14.13;7.47;;;;;;;10.47;100.00;101157.11;5216112;56;1143095;-76
2022/04/15 11:48:32;;;;;;;36.17;15.83;;;;;;;10.43;100.00;101156.08;5197738;56;1143156;-73
2022/04/15 11:53:39;;;;;;;22.33;11.50;;;;;;;10.40;100.00;101158.92;5185232;57;1145305;-75
2022/04/15 11:58:45;;;;;;;65.57;31.10;;;;;;;10.39;100.00;101159.91;5184909;57;1145431;-74
2022/04/15 12:03:53;;;;;;;26.13;18.97;;;;;;;10.36;100.00;101163.59;5156785;56;1145194;-75
2022/04/15 12:09:05;;;;;;;28.30;21.43;;;;;;;10.35;100.00;101166.34;5185314;57;1145235;-75
2022/04/15 12:14:13;;;;;;;48.02;36.98;;;;;;;10.36;100.00;101175.97;5192869;56;1145468;-76
2022/04/15 12:19:19;;;;;;;17.03;13.77;;;;;;;10.28;100.00;101177.78;5185331;57;1145277;-74
2022/04/15 12:24:25;;;;;;;43.60;36.63;;;;;;;10.31;100.00;101179.37;5193050;56;1145125;-75
2022/04/15 12:29:56;;;;;;;18.50;16.57;;;;;;;10.34;100.00;101180.50;5233031;56;1145234;-76
2022/04/15 12:35:10;;;;;;;11.60;10.43;;;;;;;10.40;100.00;101184.05;5163856;56;1145125;-77
2022/04/15 12:40:24;;;;;;;19.07;15.60;;;;;;;10.40;100.00;101182.25;5164175;57;1145448;-74
2022/04/15 12:45:31;;;;;;;13.37;10.20;;;;;;;10.43;100.00;101182.52;5210409;56;1145208;-77
2022/04/15 12:50:39;;;;;;;14.37;12.07;;;;;;;10.45;100.00;101177.98;5251674;56;1145309;-73
2022/04/15 12:55:46;;;;;;;14.23;9.43;;;;;;;10.44;100.00;101190.36;5164132;57;1145498;-77
2022/04/15 13:00:54;;;;;;;15.63;9.40;;;;;;;10.33;100.00;101192.03;5242302;56;1143105;-75
2022/04/15 13:06:00;;;;;;;12.13;8.63;;;;;;;10.32;100.00;101191.66;5242185;56;1143140;-72
2022/04/15 13:11:06;;;;;;;12.17;8.40;;;;;;;10.26;100.00;101196.86;5221721;56;1143168;-73
2022/04/15 13:16:11;;;;;;;13.37;9.60;;;;;;;10.25;100.00;101189.02;5235206;56;1143109;-73
2022/04/15 13:21:19;;;;;;;12.67;8.57;;;;;;;10.21;100.00;101186.61;5240291;56;1143143;-71
2022/04/15 13:26:24;;;;;;;12.57;8.97;;;;;;;10.16;100.00;101193.09;5244441;56;1143252;-74
2022/04/15 13:31:30;;;;;;;10.80;8.57;;;;;;;10.19;100.00;101195.58;5242614;56;1141138;-74
2022/04/15 13:36:36;;;;;;;28.03;16.47;;;;;;;10.15;100.00;101198.00;5242406;56;1141095;-73
2022/04/15 13:41:41;;;;;;;24.47;19.93;;;;;;;10.07;100.00;101199.84;5242451;56;1143153;-79
2022/04/15 13:46:47;;;;;;;13.50;10.57;;;;;;;9.98;100.00;101210.98;5202451;56;1143279;-78
2022/04/15 13:51:53;;;;;;;18.47;15.57;;;;;;;9.97;100.00;101211.92;5242369;56;1141052;-78
2022/04/15 13:56:59;;;;;;;15.70;11.53;;;;;;;9.84;100.00;101210.55;5246258;56;1140964;-74
2022/04/15 14:02:07;;;;;;;25.40;18.37;;;;;;;9.76;100.00;101211.98;5250059;56;1141062;-71
2022/04/15 14:07:13;;;;;;;13.33;8.33;;;;;;;9.69;100.00;101212.83;5236812;56;1141062;-73
2022/04/15 14:12:19;;;;;;;14.57;9.67;;;;;;;9.71;100.00;101216.23;5241151;56;1139086;-74
2022/04/15 14:17:25;;;;;;;21.13;11.53;;;;;;;9.66;100.00;101221.41;5249528;56;1139293;-77
2022/04/15 14:22:31;;;;;;;20.55;12.93;;;;;;;9.65;100.00;101220.56;5248370;56;1141069;-72
2022/04/15 14:27:37;;;;;;;17.53;9.70;;;;;;;9.57;100.00;101229.45;5237973;56;1141071;-77
2022/04/15 14:32:43;;;;;;;17.63;12.47;;;;;;;9.53;100.00;101229.26;5200640;56;1139245;-75
2022/04/15 14:37:49;;;;;;;18.30;12.00;;;;;;;9.51;100.00;101235.10;5202885;56;1141070;-74
2022/04/15 14:42:56;;;;;;;17.60;10.50;;;;;;;9.47;100.00;101230.98;5186243;57;1141058;-79
2022/04/15 14:48:02;;;;;;;16.83;11.33;;;;;;;9.43;100.00;101233.42;5193985;56;1140992;-76
2022/04/15 14:53:10;;;;;;;30.03;16.67;;;;;;;9.40;100.00;101234.92;5201726;56;1141271;-76
2022/04/15 14:58:16;;;;;;;17.87;10.57;;;;;;;9.39;100.00;101234.54;5186267;57;1141093;-75
2022/04/15 15:03:23;;;;;;;16.00;10.23;;;;;;;9.36;100.00;101233.41;5216169;56;1139022;-75
2022/04/15 15:08:29;;;;;;;23.33;13.27;;;;;;;9.43;100.00;101240.87;5215233;56;1198149;-76
2022/04/15 15:13:38;;;;;;;25.30;16.43;;;;;;;9.45;100.00;101246.91;5204122;56;1143089;-74
2022/04/15 15:18:44;;;;;;;17.20;12.33;;;;;;;9.53;100.00;101250.38;5200057;56;1143174;-75
2022/04/15 15:34:37;;;;;;;17.10;11.37;;;;;;;9.57;100.00;101273.02;5251845;56;1143183;-76
2022/04/15 15:39:42;;;;;;;18.50;11.87;;;;;;;9.53;100.00;101278.11;5251463;56;1143196;-76
2022/04/15 15:44:48;;;;;;;24.02;15.72;;;;;;;9.40;100.00;101290.36;5251235;56;1143147;-77
2022/04/15 15:49:54;;;;;;;28.87;16.03;;;;;;;9.36;100.00;101300.72;5243616;56;1143079;-77
2022/04/15 15:55:00;;;;;;;28.17;17.03;;;;;;;9.30;100.00;101307.70;5242305;56;1143154;-74
2022/04/15 16:00:06;;;;;;;24.80;15.90;;;;;;;9.24;100.00;101315.98;5243001;56;1143153;-76
2022/04/15 16:05:15;;;;;;;12.88;8.78;;;;;;;9.21;100.00;101324.06;5242448;56;1143225;-80
2022/04/15 16:10:20;;;;;;;12.80;9.30;;;;;;;9.15;100.00;101331.89;5242912;56;1141079;-74
2022/04/15 16:15:26;;;;;;;15.93;9.23;;;;;;;9.03;100.00;101341.36;5251733;56;1141048;-76
2022/04/15 16:20:32;;;;;;;12.10;8.47;;;;;;;8.84;100.00;101355.25;5240496;56;1141064;-77
2022/04/15 16:25:38;;;;;;;10.47;7.33;;;;;;;8.75;100.00;101350.01;5207451;56;1141330;-75
2022/04/15 16:30:44;;;;;;;12.17;7.90;;;;;;;8.63;100.00;101360.41;5187159;56;1141071;-77
2022/04/15 16:35:50;;;;;;;11.23;8.27;;;;;;;8.63;100.00;101369.63;5161259;56;1141115;-75
2022/04/15 16:40:56;;;;;;;13.17;8.80;;;;;;;8.61;100.00;101369.72;5177430;56;1141096;-78
2022/04/15 16:46:01;;;;;;;13.73;9.13;;;;;;;8.61;100.00;101382.90;5181479;57;1141112;-76
2022/04/15 16:51:07;;;;;;;16.77;10.83;;;;;;;8.55;100.00;101383.73;5131675;57;1141104;-75
2022/04/15 17:01:37;;;;;;;33.80;18.80;;;;;;;8.48;100.00;101400.80;5131794;57;1143141;-71
2022/04/15 17:06:43;;;;;;;40.23;21.60;;;;;;;8.40;100.00;101408.64;5131729;57;1143161;-77
2022/04/15 17:11:48;;;;;;;31.33;17.53;;;;;;;8.31;100.00;101418.81;5148258;56;1143191;-74
2022/04/15 17:16:54;;;;;;;29.60;15.33;;;;;;;8.26;100.00;101431.38;5199562;56;1143283;-70
2022/04/15 17:22:00;;;;;;;40.67;19.97;;;;;;;8.24;100.00;101426.22;5212522;56;1143143;-74
2022/04/15 17:27:06;;;;;;;27.90;15.23;;;;;;;8.18;100.00;101447.61;5211121;56;1143413;-76
2022/04/15 17:32:11;;;;;;;28.30;15.20;;;;;;;8.14;100.00;101450.02;5216904;56;1143195;-77
2022/04/15 17:37:17;;;;;;;30.23;14.63;;;;;;;8.08;100.00;101459.58;5208074;56;1143418;-77
2022/04/15 17:42:23;;;;;;;29.07;16.00;;;;;;;8.03;100.00;101472.12;5131652;57;1141064;-77
2022/04/15 17:47:29;;;;;;;19.97;10.63;;;;;;;8.04;100.00;101481.73;5156105;56;1141100;-80
2022/04/15 17:52:35;;;;;;;16.33;9.33;;;;;;;8.01;100.00;101485.84;5188653;56;1141151;-76
2022/04/15 17:57:41;;;;;;;23.43;12.30;;;;;;;7.98;100.00;101505.74;5197858;56;1139020;-77
2022/04/15 18:02:49;;;;;;;28.33;13.47;;;;;;;7.96;100.00;101501.87;5217241;56;1141188;-74
2022/04/15 18:07:57;;;;;;;32.37;18.47;;;;;;;7.94;100.00;101512.98;5217329;56;1141018;-85
2022/04/15 18:13:04;;;;;;;23.77;14.03;;;;;;;7.85;100.00;101529.22;5217306;56;1141118;-80
2022/04/15 18:18:10;;;;;;;29.13;15.97;;;;;;;7.84;100.00;101541.15;5217287;56;1141055;-79
2022/04/15 18:23:16;;;;;;;27.30;14.30;;;;;;;7.74;100.00;101546.03;5217226;56;1141324;-77
2022/04/15 18:28:21;;;;;;;32.43;16.27;;;;;;;7.73;100.00;101553.08;5199074;56;1141108;-72
2022/04/15 18:33:29;;;;;;;23.67;14.53;;;;;;;7.63;100.00;101562.37;5188816;56;1141137;-73
2022/04/15 18:38:36;;;;;;;30.03;14.40;;;;;;;7.64;100.00;101574.58;5173600;56;1141104;-72
2022/04/15 18:43:41;;;;;;;48.57;17.33;;;;;;;7.63;100.00;101581.26;5166893;56;1141136;-72
2022/04/15 18:54:14;;;;;;;21.87;10.10;;;;;;;7.41;100.00;101599.84;5088780;57;1138988;-72
2022/04/15 18:59:17;;;;;;;26.90;13.53;;;;;;;7.37;100.00;101604.39;5097719;57;1143133;-73
2022/04/15 19:04:24;;;;;;;25.08;11.43;;;;;;;7.33;100.00;101607.27;5100625;57;1143327;-72
2022/04/15 19:09:43;;;;;;;30.03;12.37;;;;;;;7.30;100.00;101620.09;5129641;56;1143173;-71
2022/04/15 19:14:48;;;;;;;25.73;9.97;;;;;;;7.24;100.00;101615.56;5173487;56;1143161;-73
2022/04/15 19:19:54;;;;;;;33.17;14.33;;;;;;;7.15;100.00;101631.78;5165392;56;1141235;-71
2022/04/15 19:24:59;;;;;;;34.13;12.50;;;;;;;7.08;100.00;101630.34;5080951;57;1143091;-71
2022/04/15 19:30:05;;;;;;;24.27;9.83;;;;;;;7.05;100.00;101637.90;5202385;56;1143267;-71
2022/04/15 19:35:11;;;;;;;26.40;9.63;;;;;;;7.07;100.00;101634.74;5217681;56;1141226;-72
2022/04/15 19:40:17;;;;;;;19.67;8.93;;;;;;;7.11;100.00;101644.67;5217473;56;1141100;-71
2022/04/15 19:45:22;;;;;;;20.47;8.43;;;;;;;6.96;100.00;101643.13;5217767;56;1141045;-72
2022/04/15 19:50:29;;;;;;;24.23;7.77;;;;;;;6.94;100.00;101655.95;5200814;56;1141081;-72
2022/04/15 19:55:35;;;;;;;23.37;8.43;;;;;;;6.91;100.00;101647.73;5208998;56;1141009;-71
2022/04/15 20:06:07;;;;;;;21.10;7.60;;;;;;;6.94;100.00;101678.30;5187006;57;1141081;-71
2022/04/15 20:11:12;;;;;;;20.57;7.43;;;;;;;6.86;100.00;101690.95;5186811;56;1141070;-71
2022/04/15 20:16:18;;;;;;;17.43;6.50;;;;;;;6.68;100.00;101682.92;5190245;56;1141206;-71
2022/04/15 20:21:26;;;;;;;9.53;5.60;;;;;;;6.52;100.00;101696.78;5193182;56;1141060;-71
2022/04/15 20:26:33;;;;;;;10.57;3.70;;;;;;;6.41;100.00;101701.64;5167349;56;1138999;-71
2022/04/15 20:31:43;;;;;;;11.53;5.33;;;;;;;6.38;100.00;101707.87;5186735;56;1141009;-71
2022/04/15 20:36:48;;;;;;;8.15;3.55;;;;;;;6.33;100.00;101721.64;5212017;56;1141026;-71
2022/04/15 20:41:54;;;;;;;8.20;4.37;;;;;;;6.30;100.00;101716.51;5250786;56;1137050;-71
2022/04/15 20:47:00;;;;;;;6.77;3.17;;;;;;;6.26;100.00;101735.96;5246709;56;1139099;-71
2022/04/15 20:52:08;;;;;;;7.60;3.77;;;;;;;6.14;100.00;101740.37;5251979;56;1138956;-72
2022/04/15 20:57:15;;;;;;;12.63;5.97;;;;;;;6.09;100.00;101743.66;5249503;56;1136940;-71
2022/04/15 21:02:22;;;;;;;8.80;4.17;;;;;;;6.07;100.00;101751.59;5245491;56;1141050;-71
2022/04/15 21:07:28;;;;;;;11.13;5.33;;;;;;;6.01;100.00;101759.70;5245457;56;1136883;-70
2022/04/15 21:12:35;;;;;;;10.37;3.50;;;;;;;5.97;100.00;101758.95;5246385;56;1139036;-71
2022/04/15 21:17:41;;;;;;;7.23;2.97;;;;;;;5.97;100.00;101771.23;5249988;56;1141142;-71
2022/04/15 21:22:46;;;;;;;5.80;2.90;;;;;;;5.88;100.00;101763.68;5246431;56;1136853;-70
2022/04/15 21:27:52;;;;;;;10.07;4.03;;;;;;;5.90;100.00;101771.08;5246626;56;1136907;-70
2022/04/15 21:32:58;;;;;;;14.00;3.70;;;;;;;5.90;100.00;101771.08;5246750;56;1141042;-71
2022/04/15 21:38:04;;;;;;;10.50;3.30;;;;;;;5.82;100.00;101775.71;5242640;56;1139020;-72
2022/04/15 21:43:12;;;;;;;3.33;2.13;;;;;;;5.81;100.00;101780.56;5242558;56;1137122;-71
2022/04/15 21:48:17;;;;;;;5.47;1.93;;;;;;;5.85;100.00;101793.98;5194947;56;1136927;-70
2022/04/15 21:53:23;;;;;;;7.27;3.40;;;;;;;5.78;100.00;101801.25;5155939;56;1134824;-70
2022/04/15 21:58:29;;;;;;;8.53;2.90;;;;;;;5.70;99.50;101807.68;5155973;57;1134837;-71
2022/04/15 22:03:35;;;;;;;4.67;2.60;;;;;;;5.58;98.63;101823.42;5156006;57;1132750;-71
2022/04/15 22:08:41;;;;;;;2.53;1.70;;;;;;;5.57;99.13;101830.89;5155979;57;1132767;-71
2022/04/15 22:13:47;;;;;;;6.33;2.03;;;;;;;5.46;97.57;101833.91;5155983;57;1132761;-71
2022/04/15 22:18:52;;;;;;;5.53;2.40;;;;;;;5.46;98.29;101835.67;5156086;56;1132748;-68
2022/04/15 22:23:58;;;;;;;2.43;1.93;;;;;;;5.44;97.80;101834.87;5155900;57;1133303;-68
2022/04/15 22:29:04;;;;;;;5.50;2.07;;;;;;;5.47;97.45;101847.44;5155433;57;1132733;-68
2022/04/15 22:34:12;;;;;;;7.40;2.33;;;;;;;5.39;96.54;101844.66;5163675;56;1132988;-71
2022/04/15 22:39:17;;;;;;;6.37;2.70;;;;;;;5.30;97.06;101850.64;5136894;56;1132767;-70
2022/04/15 22:44:25;;;;;;;2.67;2.17;;;;;;;5.26;96.62;101850.78;5131438;57;1132732;-70
2022/04/15 22:49:31;;;;;;;5.40;2.13;;;;;;;5.25;96.01;101855.17;5199109;56;1132749;-71
2022/04/15 22:59:59;;;;;;;8.57;2.97;;;;;;;5.20;97.07;101861.47;5217115;56;1132743;-70
2022/04/15 23:05:07;;;;;;;8.33;2.97;;;;;;;5.29;96.96;101866.43;5236862;56;22193;-70
2022/04/15 23:10:14;;;;;;;7.00;3.10;;;;;;;5.18;95.35;101874.67;5216885;56;1130609;-70
2022/04/15 23:15:19;;;;;;;3.70;1.80;;;;;;;5.08;94.50;101877.63;5216692;56;1134908;-70
2022/04/15 23:20:26;;;;;;;6.17;2.60;;;;;;;5.03;94.48;101868.63;5216679;56;1134722;-70